Terminal Aerodrome Forecast
Issued by NWS

Current Version | Previous Version | Graphics & Text | Print | Product List | Glossary On
Versions: 1 2 3 4 5 6 7 8 9 10 11 12 13 14 15 16 17 18 19 20 21 22
450
FTUS41 KILN 211029 CCA
TAFLUK
TAF COR
KLUK 211029Z 2110/2206 00000KT 2SM BR SCT002
      TEMPO 2110/2112 1/4SM FG VV002
     FM211300 00000KT P6SM SKC
     FM211500 20007KT P6SM FEW040
     FM220000 00000KT P6SM SCT250=

USA.gov is the U.S. government's official web portal to all federal, state and local government web resources and services.